Time;durP1;ratioP1;P1;durP2;ratioP2;P2;SDS_P1;SDS_P2;PMS_P1;PMS_P2;Temp;Humidity;BMP_temperature;BMP_pressure;BME280_temperature;BME280_humidity;BME280_pressure;Samples;Min_cycle;Max_cycle;Signal;HPM_P1;HPM_P2
2022/04/22 00:00:41;;;;;;;6.72;4.93;;;12.70;61.90;;;;;;5118761;27;20486;-72
2022/04/22 00:03:07;;;;;;;8.82;5.55;;;12.70;61.80;;;;;;5085288;28;20698;-71
2022/04/22 00:05:34;;;;;;;8.18;6.25;;;12.60;62.30;;;;;;5105863;28;20059;-70
2022/04/22 00:07:59;;;;;;;6.30;4.90;;;12.50;62.70;;;;;;5100724;28;20038;-71
2022/04/22 00:10:25;;;;;;;6.93;5.10;;;12.50;62.50;;;;;;5121102;28;20035;-70
2022/04/22 00:12:50;;;;;;;8.05;6.00;;;12.60;62.60;;;;;;5122181;28;20516;-71
2022/04/22 00:15:16;;;;;;;7.28;5.55;;;12.50;62.60;;;;;;5113432;28;20432;-72
2022/04/22 00:17:42;;;;;;;7.40;5.78;;;12.50;62.60;;;;;;5090990;28;20474;-72
2022/04/22 00:20:10;;;;;;;5.97;4.97;;;12.50;62.90;;;;;;5107018;28;20024;-72
2022/04/22 00:22:40;;;;;;;6.65;5.40;;;12.50;62.60;;;;;;5086412;28;20028;-72
2022/04/22 00:25:10;;;;;;;8.40;5.60;;;12.50;63.20;;;;;;5108967;28;20073;-71
2022/04/22 00:27:37;;;;;;;7.03;5.68;;;12.40;63.20;;;;;;5106692;27;20031;-72
2022/04/22 00:30:04;;;;;;;8.55;5.63;;;12.40;63.50;;;;;;5093187;28;20035;-70
2022/04/22 00:32:30;;;;;;;7.68;5.60;;;12.40;63.70;;;;;;5093660;28;20732;-72
2022/04/22 00:34:56;;;;;;;7.05;5.57;;;12.30;64.00;;;;;;5106872;28;20028;-72
2022/04/22 00:37:21;;;;;;;6.15;4.65;;;12.30;63.90;;;;;;5082533;28;20072;-72
2022/04/22 00:39:47;;;;;;;6.35;5.35;;;12.40;63.60;;;;;;5106118;28;20027;-71
2022/04/22 00:42:13;;;;;;;6.88;4.85;;;12.30;63.90;;;;;;5105809;28;20035;-68
2022/04/22 00:44:38;;;;;;;7.53;5.85;;;12.40;63.60;;;;;;5103159;28;20720;-72
2022/04/22 00:47:04;;;;;;;7.22;5.85;;;12.30;64.00;;;;;;5106837;27;20373;-71
2022/04/22 00:49:29;;;;;;;6.88;5.25;;;12.20;64.40;;;;;;5110491;27;20087;-72
2022/04/22 00:51:55;;;;;;;8.35;5.40;;;12.20;64.30;;;;;;5111310;28;20026;-70
2022/04/22 00:54:21;;;;;;;7.40;5.38;;;12.20;64.30;;;;;;5106392;28;20020;-70
2022/04/22 00:56:47;;;;;;;6.18;4.97;;;12.30;64.10;;;;;;5112564;28;20022;-71
2022/04/22 00:59:13;;;;;;;7.80;5.30;;;12.20;64.30;;;;;;5102804;28;20031;-70
2022/04/22 01:01:39;;;;;;;5.00;3.88;;;12.10;64.40;;;;;;5105700;28;20023;-71
2022/04/22 01:09:51;;;;;;;5.47;3.92;;;12.30;63.40;;;;;;5106877;27;20228;-71
2022/04/22 01:12:17;;;;;;;7.22;5.10;;;12.30;63.30;;;;;;5103379;28;20016;-70
2022/04/22 01:14:44;;;;;;;5.57;4.43;;;12.20;63.80;;;;;;5098733;28;20027;-68
2022/04/22 01:17:10;;;;;;;5.53;3.72;;;12.20;63.80;;;;;;5094778;27;20019;-69
2022/04/22 01:19:36;;;;;;;6.22;3.60;;;12.20;63.60;;;;;;5108035;27;20047;-70
2022/04/22 01:22:02;;;;;;;4.78;3.40;;;12.20;63.50;;;;;;5106192;28;20058;-72
2022/04/22 01:24:28;;;;;;;5.00;3.55;;;12.20;63.30;;;;;;5108517;28;20023;-70
2022/04/22 01:26:55;;;;;;;7.32;4.45;;;12.30;63.20;;;;;;5103893;27;20019;-69
2022/04/22 01:29:21;;;;;;;6.45;4.00;;;12.20;63.40;;;;;;5106067;28;20055;-71
2022/04/22 01:31:47;;;;;;;5.03;3.60;;;12.10;63.30;;;;;;5112795;27;20081;-69
2022/04/22 01:34:13;;;;;;;8.25;5.18;;;12.20;63.40;;;;;;5103849;27;20015;-70
2022/04/22 01:36:38;;;;;;;9.82;6.20;;;12.10;64.10;;;;;;5114940;27;20038;-71
2022/04/22 01:39:04;;;;;;;13.07;8.30;;;12.00;64.60;;;;;;5087617;28;20020;-72
2022/04/22 01:41:29;;;;;;;8.40;5.50;;;11.90;64.90;;;;;;5102515;28;20015;-71
2022/04/22 01:43:55;;;;;;;5.45;4.28;;;11.90;64.80;;;;;;5094404;28;20027;-71
2022/04/22 01:46:21;;;;;;;6.72;4.88;;;11.90;64.50;;;;;;5097311;28;20077;-71
2022/04/22 01:48:47;;;;;;;5.47;3.90;;;11.90;64.60;;;;;;5119563;27;20093;-68
2022/04/22 01:51:12;;;;;;;5.65;4.20;;;11.90;64.40;;;;;;5084933;28;20760;-73
2022/04/22 01:53:38;;;;;;;6.50;4.88;;;11.90;64.30;;;;;;5098508;28;20040;-70
2022/04/22 01:56:04;;;;;;;7.38;4.93;;;11.90;64.60;;;;;;5101011;28;20039;-71
2022/04/22 01:58:30;;;;;;;4.78;3.35;;;11.90;65.10;;;;;;5108698;28;20026;-71
2022/04/22 02:00:55;;;;;;;7.32;3.85;;;11.90;64.80;;;;;;5098122;28;20103;-71
2022/04/22 02:03:21;;;;;;;5.72;4.05;;;11.90;64.60;;;;;;5105364;28;20524;-71
2022/04/22 02:05:46;;;;;;;5.95;3.92;;;11.80;64.80;;;;;;5100175;28;20549;-70
2022/04/22 02:08:12;;;;;;;4.60;3.55;;;11.80;64.60;;;;;;5087516;28;20023;-70
2022/04/22 02:10:38;;;;;;;5.10;3.97;;;11.90;64.50;;;;;;5097415;28;20012;-70
2022/04/22 02:13:05;;;;;;;5.90;4.30;;;11.80;64.50;;;;;;5085211;28;20073;-72
2022/04/22 02:15:30;;;;;;;5.65;3.83;;;11.80;64.40;;;;;;5103364;28;20027;-72
2022/04/22 02:17:56;;;;;;;5.20;3.55;;;11.70;64.90;;;;;;5105788;28;20027;-72
2022/04/22 02:20:22;;;;;;;5.60;3.22;;;11.70;65.00;;;;;;5098972;28;20703;-70
2022/04/22 02:22:48;;;;;;;5.55;3.83;;;11.70;64.80;;;;;;5099038;28;20622;-71
2022/04/22 02:25:13;;;;;;;6.35;3.90;;;11.70;64.80;;;;;;5095477;28;20426;-72
2022/04/22 02:30:23;;;;;;;6.03;4.10;;;11.70;65.10;;;;;;5099772;28;20081;-72
2022/04/22 02:32:50;;;;;;;5.13;4.10;;;11.70;65.10;;;;;;5098578;28;20043;-71
2022/04/22 02:35:16;;;;;;;6.38;4.05;;;11.60;65.40;;;;;;5101893;28;20016;-73
2022/04/22 02:37:41;;;;;;;5.32;4.05;;;11.50;65.90;;;;;;5105451;28;20475;-71
2022/04/22 02:40:07;;;;;;;6.40;4.10;;;11.50;66.20;;;;;;5080083;28;20039;-71
2022/04/22 02:45:26;;;;;;;5.20;3.58;;;11.40;66.50;;;;;;5098151;27;20401;-70
2022/04/22 02:47:52;;;;;;;5.13;3.60;;;11.40;66.50;;;;;;5089031;28;20054;-70
2022/04/22 02:50:18;;;;;;;4.93;3.53;;;11.50;66.70;;;;;;5104622;28;20019;-70
2022/04/22 02:52:43;;;;;;;5.13;3.53;;;11.40;66.70;;;;;;5086887;28;20028;-71
2022/04/22 02:55:09;;;;;;;5.40;4.30;;;11.40;66.80;;;;;;5091417;28;20027;-72
2022/04/22 02:57:35;;;;;;;5.50;3.45;;;11.40;67.00;;;;;;5103889;28;20016;-71
2022/04/22 03:00:01;;;;;;;5.05;3.58;;;11.40;67.20;;;;;;5103242;28;20477;-70
2022/04/22 03:02:26;;;;;;;5.65;3.95;;;11.30;67.60;;;;;;5095943;28;20027;-70
2022/04/22 03:04:53;;;;;;;5.95;4.15;;;11.30;67.90;;;;;;5106111;28;20036;-71
2022/04/22 03:07:19;;;;;;;5.65;4.35;;;11.30;68.30;;;;;;5105343;28;20098;-69
2022/04/22 03:09:45;;;;;;;5.90;4.28;;;11.30;69.10;;;;;;5112026;28;20107;-70
2022/04/22 03:12:13;;;;;;;7.70;5.10;;;11.20;69.10;;;;;;5104587;28;20031;-69
2022/04/22 03:14:38;;;;;;;6.03;4.20;;;11.20;69.90;;;;;;5105712;28;20073;-71
2022/04/22 03:17:05;;;;;;;6.57;4.70;;;11.20;70.10;;;;;;5106055;28;20674;-70
2022/04/22 03:19:31;;;;;;;9.48;6.30;;;11.10;71.40;;;;;;5104166;28;20020;-68
2022/04/22 03:21:57;;;;;;;7.70;5.75;;;11.10;72.10;;;;;;5111197;28;20031;-69
2022/04/22 03:24:23;;;;;;;8.63;6.22;;;11.00;72.40;;;;;;5106012;28;20020;-69
2022/04/22 03:26:49;;;;;;;7.25;5.38;;;10.90;73.60;;;;;;5110614;28;20116;-70
2022/04/22 03:29:14;;;;;;;6.70;4.82;;;11.00;73.40;;;;;;5107436;28;20028;-71
2022/04/22 03:31:40;;;;;;;5.95;4.90;;;11.00;72.90;;;;;;5106921;28;20024;-69
2022/04/22 03:34:05;;;;;;;8.05;5.68;;;11.00;72.40;;;;;;5111611;27;20020;-69
2022/04/22 03:36:31;;;;;;;10.20;7.20;;;11.00;72.30;;;;;;5109753;27;20016;-71
2022/04/22 03:38:56;;;;;;;9.25;6.28;;;11.00;73.40;;;;;;5110532;28;20016;-72
2022/04/22 03:41:22;;;;;;;10.52;7.53;;;11.00;73.20;;;;;;5108347;28;20382;-70
2022/04/22 03:43:47;;;;;;;9.60;6.78;;;10.90;74.00;;;;;;5107444;28;20032;-72
2022/04/22 03:46:13;;;;;;;7.55;5.53;;;10.80;74.40;;;;;;5108071;27;20031;-72
2022/04/22 03:48:39;;;;;;;8.63;6.60;;;10.90;74.20;;;;;;5091998;28;20043;-73
2022/04/22 03:51:05;;;;;;;10.35;7.60;;;10.90;74.60;;;;;;5098377;28;20023;-72
2022/04/22 03:53:33;;;;;;;10.00;6.90;;;10.80;75.20;;;;;;5097767;28;20017;-72
2022/04/22 03:58:10;;;;;;;7.75;5.82;;;10.70;75.50;;;;;;5108632;27;20029;-71
2022/04/22 03:58:44;;;;;;;8.18;5.90;;;10.80;75.10;;;;;;5098155;28;20033;-71
2022/04/22 04:01:10;;;;;;;10.02;7.38;;;10.80;74.90;;;;;;5089304;28;20650;-71
2022/04/22 04:03:35;;;;;;;8.85;6.35;;;10.80;75.80;;;;;;5089174;28;20012;-72
2022/04/22 04:06:01;;;;;;;8.00;6.47;;;10.80;75.50;;;;;;5101338;28;20024;-69
2022/04/22 04:08:26;;;;;;;7.75;6.28;;;10.80;75.20;;;;;;5105090;28;20091;-71
2022/04/22 04:16:20;;;;;;;7.90;5.78;;;10.80;74.60;;;;;;5105312;27;20031;-70
2022/04/22 04:18:45;;;;;;;7.50;5.68;;;10.80;74.60;;;;;;5100809;28;20397;-70
2022/04/22 04:23:56;;;;;;;7.70;6.03;;;10.80;74.50;;;;;;5099488;28;20031;-73
2022/04/22 04:26:26;;;;;;;8.27;6.32;;;10.70;74.80;;;;;;5108331;28;20079;-71
2022/04/22 04:28:53;;;;;;;7.28;5.60;;;10.70;75.30;;;;;;5092698;28;20063;-73
2022/04/22 04:31:19;;;;;;;10.07;7.32;;;10.70;75.10;;;;;;5104663;27;20032;-72
2022/04/22 04:33:45;;;;;;;9.90;6.75;;;10.70;75.70;;;;;;5092436;28;20036;-72
2022/04/22 04:36:11;;;;;;;10.05;7.53;;;10.70;75.70;;;;;;5110835;27;20029;-70
2022/04/22 04:38:38;;;;;;;9.13;7.63;;;10.50;76.50;;;;;;5104617;28;20542;-71
2022/04/22 04:41:06;;;;;;;8.63;6.70;;;10.50;76.80;;;;;;5097242;27;20028;-70
2022/04/22 04:43:32;;;;;;;7.90;6.72;;;10.50;76.40;;;;;;5091296;28;20520;-70
2022/04/22 04:45:58;;;;;;;9.13;7.95;;;10.50;76.40;;;;;;5111785;28;20028;-70
2022/04/22 04:48:23;;;;;;;9.32;7.10;;;10.50;77.00;;;;;;5101811;27;20099;-71
2022/04/22 04:50:52;;;;;;;8.82;6.80;;;10.60;76.60;;;;;;5095992;27;20027;-69
2022/04/22 04:53:20;;;;;;;6.78;5.80;;;10.60;76.50;;;;;;5088462;28;20554;-70
2022/04/22 04:55:46;;;;;;;8.55;6.03;;;10.60;76.90;;;;;;5110360;28;20023;-72
2022/04/22 04:58:11;;;;;;;7.70;5.60;;;10.70;75.90;;;;;;5084937;28;20161;-70
2022/04/22 05:00:37;;;;;;;6.35;4.93;;;10.70;75.50;;;;;;5103268;28;20472;-70
2022/04/22 05:03:03;;;;;;;11.20;7.75;;;10.70;75.20;;;;;;5104926;28;20020;-70
2022/04/22 05:05:29;;;;;;;8.20;6.43;;;10.70;75.70;;;;;;5104876;28;20562;-72
2022/04/22 05:08:00;;;;;;;8.35;6.25;;;10.70;75.90;;;;;;5101953;28;20051;-72
2022/04/22 05:10:28;;;;;;;6.90;5.72;;;10.70;75.90;;;;;;5108994;28;20437;-71
2022/04/22 05:12:54;;;;;;;7.20;5.55;;;10.80;75.70;;;;;;5100576;28;20066;-70
2022/04/22 05:15:22;;;;;;;8.70;5.93;;;10.80;75.30;;;;;;5105813;28;20383;-71
2022/04/22 05:17:48;;;;;;;7.55;6.32;;;10.90;75.10;;;;;;5095241;28;20617;-72
2022/04/22 05:20:16;;;;;;;8.10;6.43;;;10.90;75.00;;;;;;5112379;27;20091;-72
2022/04/22 05:22:43;;;;;;;9.45;6.10;;;10.90;75.20;;;;;;5101981;28;20121;-71
2022/04/22 05:25:11;;;;;;;6.63;5.68;;;10.90;75.10;;;;;;5111509;28;20027;-72
2022/04/22 05:27:37;;;;;;;8.43;6.30;;;11.00;75.00;;;;;;5115260;27;20032;-71
2022/04/22 05:32:49;;;;;;;9.90;8.20;;;10.90;76.00;;;;;;5114361;27;20046;-72
2022/04/22 05:35:17;;;;;;;8.60;7.47;;;10.80;76.20;;;;;;5101493;28;20020;-72
2022/04/22 05:37:47;;;;;;;6.88;5.60;;;10.80;76.10;;;;;;5084903;28;20028;-71
2022/04/22 05:40:15;;;;;;;7.50;6.60;;;10.90;75.90;;;;;;5100096;27;20095;-73
2022/04/22 05:42:41;;;;;;;7.72;6.28;;;10.90;75.70;;;;;;5080863;28;20593;-72
2022/04/22 05:45:08;;;;;;;10.50;7.80;;;11.00;75.30;;;;;;5089806;28;20362;-71
2022/04/22 05:47:34;;;;;;;10.52;7.72;;;11.40;75.40;;;;;;5087124;27;20023;-72
2022/04/22 05:50:00;;;;;;;9.90;7.88;;;12.10;74.70;;;;;;5102618;27;20024;-71
2022/04/22 05:52:26;;;;;;;8.93;8.00;;;13.00;72.20;;;;;;5082500;28;20038;-71
2022/04/22 05:54:51;;;;;;;9.00;7.75;;;13.80;68.90;;;;;;5106845;28;20028;-72
2022/04/22 05:57:17;;;;;;;9.35;6.78;;;13.90;67.20;;;;;;5095452;28;20019;-72
2022/04/22 05:59:43;;;;;;;9.85;7.78;;;14.50;66.20;;;;;;5094052;28;20079;-71
2022/04/22 06:02:08;;;;;;;7.82;6.05;;;15.00;64.50;;;;;;5091601;27;20027;-72
2022/04/22 06:04:34;;;;;;;9.18;7.90;;;15.50;63.20;;;;;;5094720;27;20022;-72
2022/04/22 06:06:59;;;;;;;6.07;5.28;;;16.10;60.70;;;;;;5092765;27;20381;-72
2022/04/22 06:12:09;;;;;;;7.15;5.82;;;17.10;58.00;;;;;;5094677;28;20172;-72
2022/04/22 06:14:35;;;;;;;8.75;6.70;;;18.10;56.50;;;;;;5099220;28;20024;-72
2022/04/22 06:17:01;;;;;;;7.20;5.90;;;17.50;55.60;;;;;;5095288;28;20016;-70
2022/04/22 06:19:26;;;;;;;9.40;6.90;;;17.80;55.70;;;;;;5098422;28;20020;-72
2022/04/22 06:21:52;;;;;;;10.55;8.48;;;17.80;54.60;;;;;;5100605;28;20029;-71
2022/04/22 06:24:17;;;;;;;9.07;7.05;;;17.50;54.10;;;;;;5094456;28;20031;-72
2022/04/22 06:26:43;;;;;;;10.25;7.55;;;17.60;55.00;;;;;;5083925;28;20032;-72
2022/04/22 06:29:09;;;;;;;7.75;6.70;;;17.30;54.50;;;;;;5097152;28;20016;-72
2022/04/22 06:31:35;;;;;;;10.65;9.07;;;17.70;55.00;;;;;;5084599;28;20034;-72
2022/04/22 06:34:02;;;;;;;11.80;8.88;;;18.20;53.10;;;;;;5095250;28;20024;-72
2022/04/22 06:36:29;;;;;;;9.52;7.18;;;17.80;53.30;;;;;;5103364;28;20100;-73
2022/04/22 06:38:58;;;;;;;9.27;7.72;;;18.10;53.70;;;;;;5098819;28;20392;-72
2022/04/22 06:46:57;;;;;;;6.70;5.57;;;19.40;51.80;;;;;;5109926;28;20386;-71
2022/04/22 06:49:23;;;;;;;9.40;7.50;;;20.50;49.90;;;;;;5092197;28;20023;-69
2022/04/22 06:51:50;;;;;;;10.68;8.90;;;21.20;47.40;;;;;;5091466;28;20061;-69
2022/04/22 06:54:15;;;;;;;9.43;7.50;;;20.50;46.20;;;;;;5101460;28;20116;-70
2022/04/22 06:56:42;;;;;;;10.75;8.57;;;19.80;47.90;;;;;;5102361;28;20462;-71
2022/04/22 06:59:08;;;;;;;8.18;6.15;;;19.80;47.90;;;;;;5103841;28;20140;-71
2022/04/22 07:01:36;;;;;;;8.77;7.25;;;20.20;48.40;;;;;;5091825;28;20027;-71
2022/04/22 07:04:02;;;;;;;9.75;8.05;;;20.00;47.80;;;;;;5110223;28;20027;-71
2022/04/22 07:06:29;;;;;;;12.70;9.60;;;19.90;47.80;;;;;;5092540;28;20055;-70
2022/04/22 07:08:55;;;;;;;10.55;8.48;;;19.80;47.20;;;;;;5092307;28;20036;-70
2022/04/22 07:11:26;;;;;;;11.20;8.57;;;19.20;48.50;;;;;;5110224;28;20035;-70
2022/04/22 07:13:52;;;;;;;12.55;9.25;;;18.80;49.50;;;;;;5092877;28;20409;-70
2022/04/22 07:16:18;;;;;;;11.13;8.20;;;18.80;49.50;;;;;;5109984;28;20018;-70
2022/04/22 07:18:44;;;;;;;11.70;8.35;;;19.00;49.60;;;;;;5099278;28;20028;-71
2022/04/22 07:21:10;;;;;;;11.70;8.00;;;18.60;49.50;;;;;;5092052;28;20023;-71
2022/04/22 07:23:36;;;;;;;10.13;8.25;;;18.80;50.10;;;;;;5072102;28;20089;-71
2022/04/22 07:26:06;;;;;;;10.75;8.77;;;19.20;49.00;;;;;;5095171;28;20501;-71
2022/04/22 07:28:32;;;;;;;10.90;8.55;;;19.60;48.30;;;;;;5108582;28;20036;-71
2022/04/22 07:30:59;;;;;;;12.02;9.50;;;19.10;48.00;;;;;;5110503;28;20012;-71
2022/04/22 07:33:26;;;;;;;13.18;10.43;;;19.30;48.10;;;;;;5102423;28;20036;-71
2022/04/22 07:35:52;;;;;;;11.77;7.78;;;19.40;47.80;;;;;;5110574;28;20034;-71
2022/04/22 07:38:18;;;;;;;9.52;7.78;;;19.70;47.70;;;;;;5108708;28;20095;-70
2022/04/22 07:40:48;;;;;;;11.40;7.38;;;19.60;47.70;;;;;;5108262;28;20019;-70
2022/04/22 07:48:43;;;;;;;9.95;7.60;;;18.10;50.00;;;;;;5109381;28;20070;-70
2022/04/22 07:51:09;;;;;;;9.85;8.23;;;17.70;51.40;;;;;;5111827;28;20051;-71
2022/04/22 07:53:35;;;;;;;7.10;6.00;;;18.80;50.60;;;;;;5095439;28;20019;-70
2022/04/22 07:56:02;;;;;;;7.45;6.05;;;19.90;48.50;;;;;;5113329;28;20023;-70
2022/04/22 07:58:29;;;;;;;10.80;8.30;;;19.50;47.70;;;;;;5095733;28;20070;-70
2022/04/22 08:00:55;;;;;;;9.60;8.30;;;18.80;48.10;;;;;;5114498;28;20023;-70
2022/04/22 08:03:20;;;;;;;8.15;6.45;;;17.70;50.60;;;;;;5113309;28;20474;-70
2022/04/22 08:05:46;;;;;;;9.40;7.13;;;17.00;52.30;;;;;;5110669;28;20102;-68
2022/04/22 08:08:11;;;;;;;12.32;7.95;;;16.60;53.60;;;;;;5112054;27;20031;-70
2022/04/22 08:10:38;;;;;;;12.43;8.20;;;16.30;54.50;;;;;;5091033;28;20038;-70
2022/04/22 08:13:05;;;;;;;8.18;6.35;;;16.00;55.30;;;;;;5117900;27;20358;-70
2022/04/22 08:15:31;;;;;;;10.43;7.60;;;15.90;56.10;;;;;;5107914;27;20024;-70
2022/04/22 08:17:57;;;;;;;10.35;7.00;;;16.30;55.90;;;;;;5099476;28;20382;-70
2022/04/22 08:20:22;;;;;;;15.20;9.82;;;16.70;55.00;;;;;;5114647;27;20012;-69
2022/04/22 08:22:48;;;;;;;9.90;7.57;;;16.40;54.50;;;;;;5107724;28;20401;-71
2022/04/22 08:25:14;;;;;;;9.25;7.38;;;16.20;55.50;;;;;;5110024;28;20034;-70
2022/04/22 08:27:40;;;;;;;8.45;6.30;;;16.50;55.60;;;;;;5095034;28;20034;-71
2022/04/22 08:30:07;;;;;;;9.38;7.78;;;17.10;55.20;;;;;;5084819;28;20020;-70
2022/04/22 08:32:33;;;;;;;11.68;8.82;;;17.10;54.30;;;;;;5116862;27;20027;-71
2022/04/22 08:34:58;;;;;;;8.75;6.65;;;16.60;54.10;;;;;;5102591;28;20127;-71
2022/04/22 08:37:24;;;;;;;10.32;7.22;;;16.20;55.10;;;;;;5095279;28;20016;-70
2022/04/22 08:39:49;;;;;;;9.27;6.90;;;16.00;55.50;;;;;;5111626;28;20059;-70
2022/04/22 08:42:16;;;;;;;8.60;6.57;;;16.00;55.80;;;;;;5102676;28;20051;-71
2022/04/22 08:44:42;;;;;;;8.60;6.13;;;15.90;56.10;;;;;;5112385;28;20059;-70
2022/04/22 08:50:09;;;;;;;10.43;7.68;;;15.80;56.20;;;;;;5106927;27;20084;-70
2022/04/22 08:52:36;;;;;;;11.65;8.35;;;15.60;57.20;;;;;;5100657;27;20024;-71
2022/04/22 08:55:06;;;;;;;8.73;6.75;;;15.40;57.00;;;;;;5105742;28;20024;-71
2022/04/22 08:57:31;;;;;;;7.07;5.78;;;15.40;57.40;;;;;;5086062;28;20066;-70
2022/04/22 09:00:00;;;;;;;10.02;7.50;;;15.70;57.20;;;;;;5106538;28;20367;-70
2022/04/22 09:02:26;;;;;;;9.90;7.32;;;15.70;56.90;;;;;;5085967;28;20043;-69
2022/04/22 09:04:51;;;;;;;10.57;7.88;;;15.90;57.00;;;;;;5098371;28;20055;-70
2022/04/22 09:07:18;;;;;;;9.05;6.68;;;15.90;56.10;;;;;;5115841;27;20123;-70
2022/04/22 09:09:49;;;;;;;9.20;6.50;;;15.90;56.10;;;;;;5085430;28;20501;-70
2022/04/22 09:12:17;;;;;;;11.27;7.13;;;15.80;56.00;;;;;;5106656;28;20034;-70
2022/04/22 09:14:46;;;;;;;7.13;5.82;;;16.00;56.00;;;;;;5118276;27;20027;-70
2022/04/22 09:17:23;;;;;;;8.88;7.07;;;16.00;55.90;;;;;;5087302;28;20020;-71
2022/04/22 09:19:51;;;;;;;8.27;6.68;;;16.10;55.50;;;;;;5112654;27;20490;-71
2022/04/22 09:22:27;;;;;;;7.80;5.72;;;16.00;55.70;;;;;;5101447;28;20038;-72
2022/04/22 09:24:55;;;;;;;9.35;6.40;;;16.30;55.90;;;;;;5101477;28;20020;-71
2022/04/22 09:27:32;;;;;;;10.15;7.13;;;16.40;55.10;;;;;;5109005;27;20026;-71
2022/04/22 09:29:58;;;;;;;8.40;6.40;;;16.40;54.60;;;;;;5101844;28;20469;-69
2022/04/22 09:32:28;;;;;;;8.43;5.90;;;16.40;55.00;;;;;;5081477;28;20448;-71
2022/04/22 09:35:16;;;;;;;8.85;6.45;;;16.50;54.50;;;;;;5101770;27;20089;-71
2022/04/22 09:43:47;;;;;;;7.90;5.40;;;16.20;53.70;;;;;;5095300;28;20035;-72
2022/04/22 09:46:30;;;;;;;6.68;5.28;;;16.30;54.50;;;;;;5086911;28;20483;-71
2022/04/22 09:48:56;;;;;;;;;;;16.50;54.30;;;;;;5086039;28;20261;-72
2022/04/22 09:51:31;;;;;;;10.10;5.97;;;16.40;53.90;;;;;;5090458;28;20001;-70
2022/04/22 09:54:03;;;;;;;10.57;6.70;;;16.40;54.20;;;;;;5102836;28;20028;-71
2022/04/22 09:56:29;;;;;;;8.73;5.68;;;16.30;54.30;;;;;;5097513;28;20023;-72
2022/04/22 09:58:56;;;;;;;7.07;4.97;;;16.30;54.80;;;;;;5083088;28;20103;-71
2022/04/22 10:01:24;;;;;;;7.97;5.00;;;16.40;54.90;;;;;;5101279;28;20547;-70
2022/04/22 10:03:50;;;;;;;7.95;6.43;;;16.70;54.50;;;;;;5088894;28;20169;-70
2022/04/22 10:06:15;;;;;;;9.93;6.57;;;16.90;53.60;;;;;;5083237;27;20119;-69
2022/04/22 10:08:45;;;;;;;6.22;4.97;;;16.80;53.50;;;;;;5101866;28;20042;-71
2022/04/22 10:11:15;;;;;;;7.93;6.00;;;16.60;53.40;;;;;;5096748;28;20085;-70
2022/04/22 10:13:43;;;;;;;8.57;5.72;;;16.50;53.10;;;;;;5088900;28;20023;-70
2022/04/22 10:16:10;;;;;;;7.72;5.82;;;16.40;53.80;;;;;;5119116;27;20023;-70
2022/04/22 10:18:36;;;;;;;9.45;6.30;;;16.40;53.70;;;;;;5121367;27;20300;-70
2022/04/22 10:21:03;;;;;;;8.85;5.70;;;16.40;53.80;;;;;;5114212;27;20020;-70
2022/04/22 10:23:30;;;;;;;7.57;6.07;;;16.50;53.60;;;;;;5114616;27;20383;-69
2022/04/22 10:25:56;;;;;;;7.05;5.63;;;16.60;53.10;;;;;;5090201;28;20062;-70
2022/04/22 10:28:23;;;;;;;7.82;5.72;;;16.60;52.60;;;;;;5100654;28;20111;-70
2022/04/22 10:30:51;;;;;;;8.55;5.85;;;16.60;52.80;;;;;;5107949;27;20027;-70
2022/04/22 10:33:16;;;;;;;7.82;5.45;;;16.60;52.50;;;;;;5104596;27;20016;-71
2022/04/22 10:35:44;;;;;;;7.95;5.10;;;16.70;52.30;;;;;;5108512;27;20043;-70
2022/04/22 10:38:29;;;;;;;6.85;4.40;;;16.60;52.30;;;;;;5094770;28;20068;-70
2022/04/22 10:40:55;;;;;;;5.72;4.50;;;16.70;52.70;;;;;;5087131;28;20020;-70
2022/04/22 10:43:24;;;;;;;8.32;5.03;;;17.00;52.50;;;;;;5104941;28;20110;-71
2022/04/22 10:48:39;;;;;;;5.10;3.90;;;17.00;51.70;;;;;;5107168;28;20061;-70
2022/04/22 10:51:05;;;;;;;7.43;4.60;;;17.20;52.00;;;;;;5087702;28;20073;-70
2022/04/22 10:53:39;;;;;;;6.53;4.97;;;17.50;51.10;;;;;;5087990;28;20023;-70
2022/04/22 10:56:26;;;;;;;7.38;5.50;;;17.60;50.50;;;;;;5102778;28;20030;-70
2022/04/22 10:59:24;;;;;;;5.63;4.53;;;17.50;49.80;;;;;;5106400;28;20020;-70
2022/04/22 11:01:51;;;;;;;6.72;4.30;;;17.40;50.10;;;;;;5098323;28;20027;-70
2022/04/22 11:04:24;;;;;;;8.25;5.13;;;17.20;50.10;;;;;;5102908;28;20032;-71
2022/04/22 11:06:50;;;;;;;6.45;5.03;;;17.00;49.40;;;;;;5109152;28;20027;-70
2022/04/22 11:09:27;;;;;;;8.98;4.80;;;16.90;49.90;;;;;;5109341;28;20039;-70
2022/04/22 11:11:54;;;;;;;6.22;3.83;;;16.90;49.70;;;;;;5110597;28;20032;-70
2022/04/22 11:14:28;;;;;;;4.65;3.38;;;17.10;49.90;;;;;;5078827;28;20024;-71
2022/04/22 11:16:55;;;;;;;5.95;3.80;;;17.40;49.40;;;;;;5084933;28;20022;-71
2022/04/22 11:19:21;;;;;;;6.88;3.80;;;17.60;48.70;;;;;;5102677;28;20059;-70
2022/04/22 11:21:57;;;;;;;5.88;3.75;;;17.60;47.70;;;;;;5084195;28;20039;-71
2022/04/22 11:24:25;;;;;;;5.07;3.13;;;17.60;47.20;;;;;;5101245;28;20486;-70
2022/04/22 11:26:53;;;;;;;4.13;2.92;;;17.70;47.30;;;;;;5106774;28;20031;-70
2022/04/22 11:29:19;;;;;;;5.65;2.53;;;18.10;46.50;;;;;;5085649;28;20035;-72
2022/04/22 11:31:57;;;;;;;5.10;3.38;;;18.30;45.60;;;;;;5086638;28;20026;-72
2022/04/22 11:34:46;;;;;;;3.85;3.00;;;18.20;43.50;;;;;;5086058;28;20482;-71
2022/04/22 11:37:20;;;;;;;5.68;3.33;;;17.90;44.00;;;;;;5095907;27;20425;-71
2022/04/22 11:39:49;;;;;;;9.18;5.65;;;17.80;44.40;;;;;;5116246;27;20033;-71
2022/04/22 11:42:17;;;;;;;5.30;3.70;;;17.60;44.70;;;;;;5103827;28;20084;-71
2022/04/22 11:45:02;;;;;;;9.20;3.78;;;17.50;44.10;;;;;;5102989;28;20386;-70
2022/04/22 11:47:28;;;;;;;4.75;3.72;;;17.60;44.30;;;;;;5100659;28;21086;-71
2022/04/22 11:49:55;;;;;;;3.60;3.20;;;17.40;43.80;;;;;;5105495;28;20103;-71
2022/04/22 11:52:22;;;;;;;3.67;3.20;;;17.40;43.90;;;;;;5106789;28;20027;-72
2022/04/22 11:54:48;;;;;;;5.32;3.50;;;17.50;43.90;;;;;;5107644;28;20053;-71
2022/04/22 11:57:16;;;;;;;4.10;2.70;;;17.50;43.50;;;;;;5105165;28;20072;-71
2022/04/22 12:05:31;;;;;;;5.57;4.05;;;17.60;44.20;;;;;;5101733;28;20020;-71
2022/04/22 12:05:35;;;;;;;5.28;3.45;;;17.70;43.90;;;;;;5097635;28;20119;-70
2022/04/22 12:08:04;;;;;;;5.55;3.92;;;17.90;43.80;;;;;;5102648;27;20103;-70
2022/04/22 12:10:30;;;;;;;5.25;3.20;;;17.90;42.90;;;;;;5104689;28;20066;-71
2022/04/22 12:13:01;;;;;;;4.70;3.35;;;18.10;43.60;;;;;;5094721;28;20496;-70
2022/04/22 12:15:27;;;;;;;5.45;3.50;;;18.30;43.40;;;;;;5088387;28;20039;-71
2022/04/22 12:17:52;;;;;;;4.93;3.45;;;18.20;43.20;;;;;;5100048;28;20020;-71
2022/04/22 12:20:19;;;;;;;5.18;4.15;;;18.20;43.20;;;;;;5108999;27;20051;-71
2022/04/22 12:22:48;;;;;;;5.75;3.40;;;18.00;43.40;;;;;;5106736;27;20111;-70
2022/04/22 12:25:16;;;;;;;5.47;3.90;;;18.00;43.80;;;;;;5104794;28;20028;-70
2022/04/22 12:27:43;;;;;;;7.35;4.47;;;18.00;43.80;;;;;;5112726;27;20027;-71
2022/04/22 12:30:14;;;;;;;4.50;3.60;;;17.80;44.00;;;;;;5109249;27;20057;-71
2022/04/22 12:32:41;;;;;;;5.43;3.80;;;18.00;44.10;;;;;;5098657;27;20032;-72
2022/04/22 12:35:11;;;;;;;5.57;3.90;;;18.10;44.00;;;;;;5106808;27;20046;-72
2022/04/22 12:37:51;;;;;;;7.10;3.67;;;18.10;43.80;;;;;;5102293;28;20478;-71
2022/04/22 12:40:19;;;;;;;5.53;4.15;;;18.30;44.20;;;;;;5091139;28;20085;-71
2022/04/22 12:42:48;;;;;;;4.55;3.40;;;18.40;43.30;;;;;;5104529;27;20035;-71
2022/04/22 12:54:08;;;;;;;6.75;3.53;;;19.00;42.30;;;;;;5103038;28;20089;-71
2022/04/22 12:56:35;;;;;;;5.25;3.45;;;18.90;41.80;;;;;;5084897;28;20035;-71
2022/04/22 12:59:04;;;;;;;3.97;3.15;;;18.80;42.00;;;;;;5105631;27;20508;-71
2022/04/22 13:01:36;;;;;;;4.18;3.15;;;18.60;41.60;;;;;;5110992;27;20077;-73
2022/04/22 13:04:03;;;;;;;5.80;3.53;;;18.60;41.60;;;;;;5096605;27;20016;-72
2022/04/22 13:06:44;;;;;;;6.43;3.20;;;18.40;41.70;;;;;;5103563;27;20036;-71
2022/04/22 13:09:11;;;;;;;6.43;3.90;;;18.50;42.10;;;;;;5106612;28;20063;-72
2022/04/22 13:11:37;;;;;;;4.65;3.10;;;18.50;41.60;;;;;;5090957;28;20442;-71
2022/04/22 13:14:04;;;;;;;4.65;3.60;;;18.40;41.80;;;;;;5093695;28;20031;-72
2022/04/22 13:16:30;;;;;;;4.63;3.25;;;18.30;42.30;;;;;;5100044;28;20039;-71
2022/04/22 13:18:56;;;;;;;4.47;3.10;;;18.30;42.50;;;;;;5093606;28;20024;-72
2022/04/22 13:21:22;;;;;;;5.15;3.30;;;18.20;42.70;;;;;;5108297;27;20022;-72
2022/04/22 13:23:48;;;;;;;5.43;3.25;;;18.10;42.70;;;;;;5099830;27;20035;-71
2022/04/22 13:26:13;;;;;;;4.90;3.53;;;17.90;43.00;;;;;;5108971;27;20024;-72
2022/04/22 13:28:39;;;;;;;4.38;3.00;;;17.90;42.90;;;;;;5108529;28;20023;-73
2022/04/22 13:31:04;;;;;;;5.22;3.30;;;17.80;43.20;;;;;;5115069;27;20516;-72
2022/04/22 13:33:32;;;;;;;3.78;3.22;;;17.80;43.20;;;;;;5098902;28;20075;-71
2022/04/22 13:36:04;;;;;;;4.03;2.75;;;17.80;43.30;;;;;;5104464;28;20019;-71
2022/04/22 13:38:33;;;;;;;5.60;3.75;;;17.90;43.50;;;;;;5081690;28;20110;-72
2022/04/22 13:41:01;;;;;;;6.55;2.95;;;17.80;43.30;;;;;;5109399;28;20086;-72
2022/04/22 13:43:30;;;;;;;4.72;2.90;;;17.90;43.80;;;;;;5101544;28;20027;-72
2022/04/22 13:54:09;;;;;;;4.57;3.47;;;18.30;42.80;;;;;;5115168;27;20525;-72